createdAt,value
2023-01-29T20:39:39.983Z,1.96
2023-01-29T20:42:08.047Z,1.95
2023-01-29T20:44:35.419Z,1.94
2023-01-29T20:47:02.781Z,1.92
2023-01-29T20:49:29.517Z,1.94
2023-01-29T20:51:56.813Z,1.93
2023-01-29T20:54:23.685Z,1.95
2023-01-29T20:56:50.442Z,1.97
2023-01-29T20:59:17.737Z,1.99
2023-01-29T21:01:45.299Z,1.99
2023-01-29T21:04:12.006Z,1.97
2023-01-29T21:06:38.662Z,1.97
2023-01-29T21:09:05.360Z,1.95
2023-01-29T21:11:33.529Z,1.92
2023-01-29T21:14:02.013Z,1.88
2023-01-29T21:16:28.819Z,1.89
2023-01-29T21:18:56.880Z,1.86
2023-01-29T21:21:23.743Z,1.84
2023-01-29T21:23:50.393Z,1.80
2023-01-29T21:26:17.834Z,1.79
2023-01-29T21:28:45.684Z,1.76
2023-01-29T21:31:14.577Z,1.76
2023-01-29T21:33:41.270Z,1.74
2023-01-29T21:36:10.023Z,1.74
2023-01-29T21:38:36.909Z,1.73
2023-01-29T21:41:05.262Z,1.70
2023-01-29T21:43:31.916Z,1.68
2023-01-29T21:46:00.309Z,1.71
2023-01-29T21:48:27.003Z,1.71
2023-01-29T21:50:53.613Z,1.70
2023-01-29T21:53:20.332Z,1.70
2023-01-29T21:55:47.053Z,1.69
2023-01-29T21:58:14.629Z,1.71
2023-01-29T22:00:41.516Z,1.73
2023-01-29T22:03:08.215Z,1.76
2023-01-29T22:05:34.988Z,1.78
2023-01-29T22:08:01.680Z,1.76
2023-01-29T22:10:28.903Z,1.77
2023-01-29T22:12:55.845Z,1.77
2023-01-29T22:15:23.842Z,1.73
2023-01-29T22:17:50.917Z,1.71
2023-01-29T22:20:19.059Z,1.72
2023-01-29T22:22:46.019Z,1.72
2023-01-29T22:25:12.962Z,1.70
2023-01-29T22:27:39.592Z,1.69
2023-01-29T22:30:07.617Z,1.64
2023-01-29T22:32:34.299Z,1.61
2023-01-29T22:35:00.940Z,1.58
2023-01-29T22:37:27.598Z,1.57
2023-01-29T22:39:54.225Z,1.59
2023-01-29T22:42:21.066Z,1.60
2023-01-29T22:44:48.622Z,1.63
2023-01-29T22:47:15.490Z,1.62
2023-01-29T22:49:42.160Z,1.59
2023-01-29T22:52:11.831Z,1.57
2023-01-29T22:54:39.472Z,1.58
2023-01-29T22:57:06.283Z,1.61
2023-01-29T22:59:33.276Z,1.62
2023-01-29T23:02:00.059Z,1.62
2023-01-29T23:04:26.863Z,1.63
2023-01-29T23:06:53.521Z,1.61
2023-01-29T23:09:20.249Z,1.63
2023-01-29T23:11:46.858Z,1.64
2023-01-29T23:14:13.529Z,1.67
2023-01-29T23:16:40.163Z,1.67
2023-01-29T23:19:06.757Z,1.67
2023-01-29T23:21:33.398Z,1.63
2023-01-29T23:24:01.257Z,1.62
2023-01-29T23:26:47.399Z,1.60
2023-01-29T23:29:14.357Z,1.56
2023-01-29T23:31:41.219Z,1.50
2023-01-29T23:34:07.995Z,1.45
2023-01-29T23:36:34.709Z,1.43
2023-01-29T23:39:01.368Z,1.43
2023-01-29T23:41:28.406Z,1.44
2023-01-29T23:43:55.037Z,1.43
2023-01-29T23:46:21.712Z,1.39
2023-01-29T23:48:48.462Z,1.35
2023-01-29T23:51:15.063Z,1.28
2023-01-29T23:53:41.650Z,1.21
2023-01-29T23:56:08.552Z,1.17
2023-01-29T23:58:35.206Z,1.16
